LIRMLIBD

Guest
Details From LIRM - GRAZZANISE
To LIBD - Bari Palese Macchie
Flight Number -
Tags generated
Created
Modified
Stats Distance 121 nm / 224 km
Max Altitude 15,300 ft / 4,663 m
Waypoints 3
Social Downloads 17
Likes 0
Share

Download

Looking for another format? Having issues loading an existing format? Contact us
Advertisement - Login to hide

Notes

Basic altitude profile: - Ascent Rate: 2500ft/min - Ascent Speed: 200kts - Cruise Altitude: 10000ft - Cruise Speed: 250kts - Descent Rate: 1500ft/min - Descent Speed: 250kts Options: - Use NATs: yes - Use PACOTS: yes - Use low airways: no - Use high airways: yes

Route

LIRM EKTOL LIBD

ID Type Via Altitude (ft/m) Position (lat/lon) Dist (leg/tot) Name
O LIRM APT - 0 / 0 41.06095 / 14.08190 - / 0 nm GRAZZANISE
EKTOL FIX - 15,300 / 4,663 41.10778 / 15.17139 49 / 49 nm
O LIBD APT - 0 / 0 41.13787 / 16.75832 71 / 121 nm Bari Palese Macchie

Altitude Profile

Advertisement - Login to hide

LIRM

Details ICAO LIRM
Name Napoli-Grazzanise Air Base "Carlo Rogmanoli"
Region Italy
Timezone Europe/Rome (UTC+1.0)
Stats Elevation 28 ft / 9 m (AMSL)
Location 41.062000° 14.082700°
Runways 2
Magnetic Variation 3.919° E

METAR

LIRM 271955Z 33005KT 9999 FEW025 13/09 Q1009

Decode

TAF

Not found

Departure Runways

ID Width Length Bearing (true/mag) Surface Threshold Overrun Markings Lighting
06L 98 ft / 30 m 3,937 ft / 1,200 m 60.37° / 56.45° LAKEBED 0 ft / 0 m 335 ft / 102 m NONE
06R 98 ft / 30 m 9,789 ft / 2,984 m 60.32° / 56.40° ASPHALT 312 ft / 95 m 0 ft / 0 m PREC-APP EDGE THRESHOLD ALSF-I
24L 98 ft / 30 m 9,789 ft / 2,984 m 240.34° / 236.42° ASPHALT 312 ft / 95 m 203 ft / 62 m PREC-APP EDGE THRESHOLD
24R 98 ft / 30 m 3,937 ft / 1,200 m 240.38° / 236.46° LAKEBED 0 ft / 0 m 335 ft / 102 m NONE

LIBD

Details ICAO LIBD (BRI)
Name Bari-Palese "Karol Wojtyla"
Region Italy
Timezone Europe/Rome (UTC+1.0)
Stats Elevation 173 ft / 53 m (AMSL)
Location 41.137900° 16.758300°
Runways 1
Magnetic Variation 4.371° E

METAR

LIBD 271950Z 15014KT 9999 SCT030 15/11 Q1011

Decode

TAF

TAF LIBD 271700Z 2718/2818 16015KT CAVOK TEMPO 2813/2818 16016G26KT= TAF LIBF 271700Z 2718/2818 12015KT 9999 SCT050 BECMG 2806/2808 12018G28KT

Decode

Destination Runways

ID Width Length Bearing (true/mag) Surface Threshold Overrun Markings Lighting
07 148 ft / 45 m 9,260 ft / 2,823 m 69.40° / 65.02° ASPHALT 1,240 ft / 378 m 0 ft / 0 m PREC-APP CENTERLINE EDGE THRESHOLD ALSF-II REIL-OMNI
25 148 ft / 45 m 9,260 ft / 2,823 m 249.42° / 245.04° ASPHALT 0 ft / 0 m 0 ft / 0 m PREC-APP CENTERLINE EDGE THRESHOLD SALS REIL-OMNI

Approach Navaids

Runway Type Ident Frequency Range Bearing (true/mag) Slope Elevation
07 GS BAP 111.35 MHz 10 nm / 19 km 69.39° / 65.02 ° 3.32° 175 ft / 53 m (AMSL)
07 LOC-ILS BAP 111.35 MHz 18 nm / 33 km 69.39° / 65.02 ° - 175 ft / 53 m (AMSL)
07 OM OM - - 69.25° / 64.88 ° - 177 ft / 54 m (AMSL)
07 DME BAP 111.35 MHz 18 nm / 33 km - - 183 ft / 56 m (AMSL)

Popular Alternatives